sensor_id;sensor_type;location;lat;lon;timestamp;P1;durP1;ratioP1;P2;durP2;ratioP2
59314;SDS011;46521;50.160;20.802;2024-01-11T00:03:04;170.17;;;75.40;;
59314;SDS011;46521;50.160;20.802;2024-01-11T00:13:06;226.93;;;98.10;;
59314;SDS011;46521;50.160;20.802;2024-01-11T00:23:07;204.00;;;88.93;;
59314;SDS011;46521;50.160;20.802;2024-01-11T00:33:09;226.53;;;92.23;;
59314;SDS011;46521;50.160;20.802;2024-01-11T00:43:10;191.77;;;82.10;;
59314;SDS011;46521;50.160;20.802;2024-01-11T00:53:12;177.15;;;77.95;;
59314;SDS011;46521;50.160;20.802;2024-01-11T01:03:15;143.97;;;63.63;;
59314;SDS011;46521;50.160;20.802;2024-01-11T01:13:17;118.30;;;53.67;;
59314;SDS011;46521;50.160;20.802;2024-01-11T01:23:18;124.03;;;56.13;;
59314;SDS011;46521;50.160;20.802;2024-01-11T01:33:20;97.55;;;48.20;;
59314;SDS011;46521;50.160;20.802;2024-01-11T01:43:21;123.20;;;54.27;;
59314;SDS011;46521;50.160;20.802;2024-01-11T01:53:23;101.13;;;47.13;;
59314;SDS011;46521;50.160;20.802;2024-01-11T02:03:29;117.17;;;50.80;;
59314;SDS011;46521;50.160;20.802;2024-01-11T02:13:31;93.20;;;47.30;;
59314;SDS011;46521;50.160;20.802;2024-01-11T02:23:33;101.43;;;46.17;;
59314;SDS011;46521;50.160;20.802;2024-01-11T02:33:42;116.37;;;52.07;;
59314;SDS011;46521;50.160;20.802;2024-01-11T02:43:47;124.60;;;55.93;;
59314;SDS011;46521;50.160;20.802;2024-01-11T02:53:49;117.75;;;53.25;;
59314;SDS011;46521;50.160;20.802;2024-01-11T03:03:51;114.30;;;48.13;;
59314;SDS011;46521;50.160;20.802;2024-01-11T03:13:54;91.77;;;41.57;;
59314;SDS011;46521;50.160;20.802;2024-01-11T03:23:56;96.73;;;46.93;;
59314;SDS011;46521;50.160;20.802;2024-01-11T03:33:58;120.85;;;54.00;;
59314;SDS011;46521;50.160;20.802;2024-01-11T03:43:59;119.37;;;51.17;;
59314;SDS011;46521;50.160;20.802;2024-01-11T03:54:01;102.73;;;43.83;;
59314;SDS011;46521;50.160;20.802;2024-01-11T04:04:03;105.50;;;47.50;;
59314;SDS011;46521;50.160;20.802;2024-01-11T04:14:04;69.57;;;34.13;;
59314;SDS011;46521;50.160;20.802;2024-01-11T04:24:07;70.00;;;32.47;;
59314;SDS011;46521;50.160;20.802;2024-01-11T04:34:08;74.33;;;34.50;;
59314;SDS011;46521;50.160;20.802;2024-01-11T04:44:10;66.50;;;32.17;;
59314;SDS011;46521;50.160;20.802;2024-01-11T04:54:12;66.40;;;31.17;;
59314;SDS011;46521;50.160;20.802;2024-01-11T05:04:13;51.85;;;27.15;;
59314;SDS011;46521;50.160;20.802;2024-01-11T05:14:15;54.80;;;29.40;;
59314;SDS011;46521;50.160;20.802;2024-01-11T05:24:17;70.77;;;32.77;;
59314;SDS011;46521;50.160;20.802;2024-01-11T05:34:18;73.90;;;32.00;;
59314;SDS011;46521;50.160;20.802;2024-01-11T05:44:20;71.20;;;32.43;;
59314;SDS011;46521;50.160;20.802;2024-01-11T05:54:21;68.60;;;30.23;;
59314;SDS011;46521;50.160;20.802;2024-01-11T06:04:23;61.23;;;31.07;;
59314;SDS011;46521;50.160;20.802;2024-01-11T06:14:24;66.57;;;30.30;;
59314;SDS011;46521;50.160;20.802;2024-01-11T06:24:26;67.67;;;30.50;;
59314;SDS011;46521;50.160;20.802;2024-01-11T06:34:27;46.50;;;23.97;;
59314;SDS011;46521;50.160;20.802;2024-01-11T06:44:29;49.80;;;24.10;;
59314;SDS011;46521;50.160;20.802;2024-01-11T06:54:31;42.83;;;23.07;;
59314;SDS011;46521;50.160;20.802;2024-01-11T07:04:33;50.93;;;23.17;;
59314;SDS011;46521;50.160;20.802;2024-01-11T07:14:35;54.33;;;25.47;;
59314;SDS011;46521;50.160;20.802;2024-01-11T07:24:37;43.23;;;22.27;;
59314;SDS011;46521;50.160;20.802;2024-01-11T07:34:38;34.50;;;18.30;;
59314;SDS011;46521;50.160;20.802;2024-01-11T07:44:40;49.10;;;24.00;;
59314;SDS011;46521;50.160;20.802;2024-01-11T07:54:41;49.40;;;24.37;;
59314;SDS011;46521;50.160;20.802;2024-01-11T08:04:43;41.90;;;19.70;;
59314;SDS011;46521;50.160;20.802;2024-01-11T08:14:44;39.50;;;19.80;;
59314;SDS011;46521;50.160;20.802;2024-01-11T08:24:47;40.97;;;21.87;;
59314;SDS011;46521;50.160;20.802;2024-01-11T08:34:48;36.13;;;19.53;;
59314;SDS011;46521;50.160;20.802;2024-01-11T08:44:50;26.75;;;14.00;;
59314;SDS011;46521;50.160;20.802;2024-01-11T08:54:52;31.60;;;14.97;;
59314;SDS011;46521;50.160;20.802;2024-01-11T09:04:54;32.20;;;15.03;;
59314;SDS011;46521;50.160;20.802;2024-01-11T09:14:55;31.50;;;15.30;;
59314;SDS011;46521;50.160;20.802;2024-01-11T09:24:56;26.70;;;13.45;;
59314;SDS011;46521;50.160;20.802;2024-01-11T09:34:58;29.65;;;13.35;;
59314;SDS011;46521;50.160;20.802;2024-01-11T09:45:00;31.87;;;15.20;;
59314;SDS011;46521;50.160;20.802;2024-01-11T09:55:03;27.90;;;15.03;;
59314;SDS011;46521;50.160;20.802;2024-01-11T10:05:05;24.97;;;13.47;;
59314;SDS011;46521;50.160;20.802;2024-01-11T10:15:08;25.60;;;13.40;;
59314;SDS011;46521;50.160;20.802;2024-01-11T10:25:11;28.25;;;14.20;;
59314;SDS011;46521;50.160;20.802;2024-01-11T10:35:14;24.30;;;11.45;;
59314;SDS011;46521;50.160;20.802;2024-01-11T10:45:19;24.85;;;12.65;;
59314;SDS011;46521;50.160;20.802;2024-01-11T10:55:22;22.47;;;11.33;;
59314;SDS011;46521;50.160;20.802;2024-01-11T11:05:26;21.25;;;11.20;;
59314;SDS011;46521;50.160;20.802;2024-01-11T11:15:30;22.90;;;12.60;;
59314;SDS011;46521;50.160;20.802;2024-01-11T11:25:34;23.50;;;10.80;;
59314;SDS011;46521;50.160;20.802;2024-01-11T11:35:36;19.97;;;11.33;;
59314;SDS011;46521;50.160;20.802;2024-01-11T11:45:38;22.03;;;11.07;;
59314;SDS011;46521;50.160;20.802;2024-01-11T11:55:42;22.70;;;11.85;;
59314;SDS011;46521;50.160;20.802;2024-01-11T12:05:44;29.00;;;14.50;;
59314;SDS011;46521;50.160;20.802;2024-01-11T12:15:45;29.97;;;14.57;;
59314;SDS011;46521;50.160;20.802;2024-01-11T12:25:47;33.95;;;17.85;;
59314;SDS011;46521;50.160;20.802;2024-01-11T12:35:49;33.35;;;17.70;;
59314;SDS011;46521;50.160;20.802;2024-01-11T12:45:51;39.95;;;19.35;;
59314;SDS011;46521;50.160;20.802;2024-01-11T12:56:02;38.67;;;20.07;;
59314;SDS011;46521;50.160;20.802;2024-01-11T13:06:11;38.10;;;19.10;;
59314;SDS011;46521;50.160;20.802;2024-01-11T13:16:13;37.90;;;19.70;;
59314;SDS011;46521;50.160;20.802;2024-01-11T13:26:15;40.87;;;20.20;;
59314;SDS011;46521;50.160;20.802;2024-01-11T13:36:17;39.63;;;21.40;;
59314;SDS011;46521;50.160;20.802;2024-01-11T13:46:18;39.93;;;20.03;;
59314;SDS011;46521;50.160;20.802;2024-01-11T13:56:20;40.95;;;19.40;;
59314;SDS011;46521;50.160;20.802;2024-01-11T14:06:22;43.70;;;22.43;;
59314;SDS011;46521;50.160;20.802;2024-01-11T14:16:23;49.30;;;22.45;;
59314;SDS011;46521;50.160;20.802;2024-01-11T14:26:24;44.83;;;20.03;;
59314;SDS011;46521;50.160;20.802;2024-01-11T14:36:26;45.00;;;21.70;;
59314;SDS011;46521;50.160;20.802;2024-01-11T14:46:28;45.17;;;21.97;;
59314;SDS011;46521;50.160;20.802;2024-01-11T14:56:32;46.83;;;24.53;;
59314;SDS011;46521;50.160;20.802;2024-01-11T15:06:35;50.15;;;24.60;;
59314;SDS011;46521;50.160;20.802;2024-01-11T15:16:37;47.35;;;21.85;;
59314;SDS011;46521;50.160;20.802;2024-01-11T15:26:39;51.00;;;24.80;;
59314;SDS011;46521;50.160;20.802;2024-01-11T15:36:41;54.80;;;26.00;;
59314;SDS011;46521;50.160;20.802;2024-01-11T15:46:43;42.75;;;21.15;;
59314;SDS011;46521;50.160;20.802;2024-01-11T15:56:44;50.13;;;25.50;;
59314;SDS011;46521;50.160;20.802;2024-01-11T16:06:47;46.95;;;25.40;;
59314;SDS011;46521;50.160;20.802;2024-01-11T16:16:48;45.93;;;21.87;;
59314;SDS011;46521;50.160;20.802;2024-01-11T16:26:50;52.25;;;24.80;;
59314;SDS011;46521;50.160;20.802;2024-01-11T16:36:51;52.30;;;24.80;;
59314;SDS011;46521;50.160;20.802;2024-01-11T16:46:53;48.80;;;23.00;;
59314;SDS011;46521;50.160;20.802;2024-01-11T16:56:54;47.40;;;23.35;;
59314;SDS011;46521;50.160;20.802;2024-01-11T17:06:56;47.67;;;22.97;;
59314;SDS011;46521;50.160;20.802;2024-01-11T17:16:57;52.85;;;25.30;;
59314;SDS011;46521;50.160;20.802;2024-01-11T17:27:00;42.90;;;22.00;;
59314;SDS011;46521;50.160;20.802;2024-01-11T17:37:08;40.95;;;20.90;;
59314;SDS011;46521;50.160;20.802;2024-01-11T17:47:10;44.85;;;23.55;;
59314;SDS011;46521;50.160;20.802;2024-01-11T17:57:11;50.27;;;25.47;;
59314;SDS011;46521;50.160;20.802;2024-01-11T18:07:13;50.75;;;23.30;;
59314;SDS011;46521;50.160;20.802;2024-01-11T18:17:14;41.73;;;21.43;;
59314;SDS011;46521;50.160;20.802;2024-01-11T18:27:16;49.00;;;24.33;;
59314;SDS011;46521;50.160;20.802;2024-01-11T18:37:17;44.40;;;23.50;;
59314;SDS011;46521;50.160;20.802;2024-01-11T18:47:20;52.70;;;24.65;;
59314;SDS011;46521;50.160;20.802;2024-01-11T18:57:22;53.03;;;23.97;;
59314;SDS011;46521;50.160;20.802;2024-01-11T19:07:23;46.83;;;21.77;;
59314;SDS011;46521;50.160;20.802;2024-01-11T19:17:25;52.03;;;24.93;;
59314;SDS011;46521;50.160;20.802;2024-01-11T19:27:26;48.20;;;23.95;;
59314;SDS011;46521;50.160;20.802;2024-01-11T19:37:28;47.05;;;24.30;;
59314;SDS011;46521;50.160;20.802;2024-01-11T19:47:29;54.73;;;28.97;;
59314;SDS011;46521;50.160;20.802;2024-01-11T19:57:31;53.07;;;28.47;;
59314;SDS011;46521;50.160;20.802;2024-01-11T20:07:33;55.90;;;27.40;;
59314;SDS011;46521;50.160;20.802;2024-01-11T20:17:35;54.75;;;26.60;;
59314;SDS011;46521;50.160;20.802;2024-01-11T20:27:36;54.23;;;25.37;;
59314;SDS011;46521;50.160;20.802;2024-01-11T20:37:38;50.17;;;24.30;;
59314;SDS011;46521;50.160;20.802;2024-01-11T20:47:42;48.15;;;22.60;;
59314;SDS011;46521;50.160;20.802;2024-01-11T20:57:43;50.43;;;24.33;;
59314;SDS011;46521;50.160;20.802;2024-01-11T21:07:45;50.25;;;23.90;;
59314;SDS011;46521;50.160;20.802;2024-01-11T21:17:46;44.75;;;23.10;;
59314;SDS011;46521;50.160;20.802;2024-01-11T21:27:49;47.35;;;23.25;;
59314;SDS011;46521;50.160;20.802;2024-01-11T21:37:50;47.87;;;24.73;;
59314;SDS011;46521;50.160;20.802;2024-01-11T21:47:52;46.67;;;24.60;;
59314;SDS011;46521;50.160;20.802;2024-01-11T21:57:53;42.80;;;21.85;;
59314;SDS011;46521;50.160;20.802;2024-01-11T22:07:55;40.60;;;20.15;;
59314;SDS011;46521;50.160;20.802;2024-01-11T22:17:57;33.77;;;17.43;;
59314;SDS011;46521;50.160;20.802;2024-01-11T22:27:58;37.50;;;16.17;;
59314;SDS011;46521;50.160;20.802;2024-01-11T22:38:00;28.35;;;12.95;;
59314;SDS011;46521;50.160;20.802;2024-01-11T22:48:02;23.50;;;10.60;;
59314;SDS011;46521;50.160;20.802;2024-01-11T22:58:04;31.13;;;15.03;;
59314;SDS011;46521;50.160;20.802;2024-01-11T23:08:05;25.87;;;12.20;;
59314;SDS011;46521;50.160;20.802;2024-01-11T23:18:07;29.10;;;14.87;;
59314;SDS011;46521;50.160;20.802;2024-01-11T23:28:09;29.33;;;12.73;;
59314;SDS011;46521;50.160;20.802;2024-01-11T23:38:10;29.03;;;13.93;;
59314;SDS011;46521;50.160;20.802;2024-01-11T23:48:12;27.47;;;12.83;;
59314;SDS011;46521;50.160;20.802;2024-01-11T23:58:13;27.15;;;13.30;;
